createdAt,value
2023-04-28T00:01:44.798Z,66.93
2023-04-28T00:04:18.177Z,67.85
2023-04-28T00:06:58.668Z,66.48
2023-04-28T00:09:31.190Z,63.95
2023-04-28T00:12:09.921Z,62.09
2023-04-28T00:14:42.556Z,60.54
2023-04-28T00:17:15.336Z,56.78
2023-04-28T00:20:15.518Z,54.54
2023-04-28T00:22:49.687Z,55.42
2023-04-28T00:25:22.418Z,56.78
2023-04-28T00:27:55.041Z,58.27
2023-04-28T00:30:27.557Z,59.44
2023-04-28T00:33:11.156Z,60.37
2023-04-28T00:35:46.330Z,63.56
2023-04-28T00:38:18.577Z,66.18
2023-04-28T00:40:51.247Z,66.31
2023-04-28T00:43:25.145Z,65.98
2023-04-28T00:45:58.102Z,66.38
2023-04-28T00:48:31.212Z,64.80
2023-04-28T00:51:04.090Z,62.88
2023-04-28T00:53:36.889Z,61.22
2023-04-28T00:56:12.980Z,57.61
2023-04-28T00:58:53.399Z,55.26
2023-04-28T01:01:29.340Z,56.04
2023-04-28T01:04:02.752Z,57.53
2023-04-28T01:06:38.385Z,58.81
2023-04-28T01:09:14.783Z,59.79
2023-04-28T01:12:08.403Z,63.44
2023-04-28T01:14:47.981Z,66.83
2023-04-28T01:17:21.442Z,66.92
2023-04-28T01:19:54.255Z,64.83
2023-04-28T01:22:36.873Z,62.53
2023-04-28T01:25:12.636Z,60.27
2023-04-28T01:27:48.929Z,56.32
2023-04-28T01:30:21.731Z,54.32
2023-04-28T01:32:54.045Z,54.90
2023-04-28T01:35:28.700Z,56.26
2023-04-28T01:38:03.935Z,57.50
2023-04-28T01:40:36.499Z,58.70
2023-04-28T01:43:12.066Z,59.82
2023-04-28T01:45:47.867Z,63.18
2023-04-28T01:48:25.607Z,67.66
2023-04-28T01:50:57.764Z,66.78
2023-04-28T01:53:34.182Z,64.47
2023-04-28T01:56:07.130Z,62.21
2023-04-28T01:58:41.011Z,60.71
2023-04-28T02:01:17.027Z,57.37
2023-04-28T02:03:50.675Z,55.54
2023-04-28T02:06:23.639Z,56.26
2023-04-28T02:08:56.370Z,57.77
2023-04-28T02:11:30.353Z,59.13
2023-04-28T02:14:03.086Z,60.45
2023-04-28T02:16:36.049Z,64.56
2023-04-28T02:19:19.325Z,68.06
2023-04-28T02:21:52.960Z,65.96
2023-04-28T02:24:28.645Z,63.46
2023-04-28T02:27:05.287Z,61.28
2023-04-28T02:29:40.132Z,57.39
2023-04-28T02:32:15.833Z,54.96
2023-04-28T02:34:59.485Z,55.32
2023-04-28T02:37:35.200Z,56.54
2023-04-28T02:40:10.066Z,57.84
2023-04-28T02:42:43.129Z,59.04
2023-04-28T02:45:35.881Z,59.90
2023-04-28T02:48:11.975Z,64.92
2023-04-28T02:50:47.854Z,69.00
2023-04-28T02:53:22.244Z,67.16
2023-04-28T02:56:06.636Z,64.57
2023-04-28T02:58:41.766Z,62.24
2023-04-28T03:01:16.840Z,60.31
2023-04-28T03:03:52.212Z,56.39
2023-04-28T03:06:34.995Z,54.40
2023-04-28T03:09:11.204Z,55.07
2023-04-28T03:11:48.752Z,56.30
2023-04-28T03:14:24.965Z,57.41
2023-04-28T03:17:17.957Z,58.34
2023-04-28T03:20:13.138Z,59.45
2023-04-28T03:23:05.910Z,60.42
2023-04-28T03:25:51.549Z,65.52
2023-04-28T03:28:44.341Z,69.11
2023-04-28T03:31:38.824Z,66.67
2023-04-28T03:34:31.937Z,63.43
2023-04-28T03:37:26.385Z,60.94
2023-04-28T03:40:18.504Z,56.82
2023-04-28T03:43:20.680Z,54.85
2023-04-28T03:46:12.260Z,55.69
2023-04-28T03:49:05.444Z,57.09
2023-04-28T03:51:58.249Z,58.62
2023-04-28T03:54:50.905Z,59.98
2023-04-28T03:57:40.067Z,65.10
2023-04-28T04:00:34.177Z,68.52
2023-04-28T04:03:27.958Z,66.00
2023-04-28T04:06:20.953Z,62.92
2023-04-28T04:09:14.099Z,57.89
2023-04-28T04:12:01.244Z,55.02
2023-04-28T04:14:53.850Z,55.17
2023-04-28T04:17:47.558Z,56.41
2023-04-28T04:20:40.556Z,57.65
2023-04-28T04:23:37.113Z,58.37
2023-04-28T04:26:30.180Z,59.41
2023-04-28T04:29:23.936Z,65.01
2023-04-28T04:32:16.614Z,68.62
2023-04-28T04:35:12.666Z,65.50
2023-04-28T04:38:07.663Z,61.93
2023-04-28T04:40:55.340Z,56.88
2023-04-28T04:43:48.412Z,54.43
2023-04-28T04:46:43.261Z,54.75
2023-04-28T04:49:29.644Z,55.86
2023-04-28T04:52:22.277Z,57.05
2023-04-28T04:55:15.155Z,58.09
2023-04-28T04:57:48.022Z,59.33
2023-04-28T05:00:40.170Z,59.30
2023-04-28T05:03:16.509Z,60.28
2023-04-28T05:05:52.023Z,64.84
2023-04-28T05:09:00.271Z,68.30
2023-04-28T05:11:33.012Z,64.30
2023-04-28T05:14:25.812Z,60.30
2023-04-28T05:16:59.862Z,55.28
2023-04-28T05:19:37.916Z,52.37
2023-04-28T05:22:11.589Z,51.67
2023-04-28T05:24:47.207Z,52.20
2023-04-28T05:27:20.919Z,52.78
2023-04-28T05:29:54.252Z,53.70
2023-04-28T05:32:37.495Z,54.40
2023-04-28T05:35:11.245Z,56.11
2023-04-28T05:37:57.035Z,55.00
2023-04-28T05:40:29.948Z,54.93
2023-04-28T05:43:02.630Z,54.46
2023-04-28T05:45:35.274Z,55.78
2023-04-28T05:48:17.207Z,55.31
2023-04-28T05:50:50.134Z,55.08
2023-04-28T05:53:24.010Z,55.42
2023-04-28T05:56:00.218Z,56.24
2023-04-28T05:58:33.667Z,56.86
2023-04-28T06:01:06.566Z,57.54
2023-04-28T06:03:41.214Z,57.27
2023-04-28T06:06:25.183Z,56.74
2023-04-28T06:08:58.533Z,56.73
2023-04-28T06:11:31.813Z,55.74
2023-04-28T06:14:26.064Z,54.83
2023-04-28T06:17:03.913Z,54.39
2023-04-28T06:19:49.292Z,54.13
2023-04-28T06:22:34.409Z,53.87
2023-04-28T06:25:27.476Z,54.62
2023-04-28T06:28:03.519Z,56.05
2023-04-28T06:30:48.881Z,55.25
2023-04-28T06:33:41.399Z,54.57
2023-04-28T06:36:16.937Z,54.68
2023-04-28T06:38:49.778Z,53.06
2023-04-28T06:41:22.173Z,52.86
2023-04-28T06:43:56.463Z,52.59
2023-04-28T06:46:38.064Z,52.10
2023-04-28T06:49:10.865Z,52.68
2023-04-28T06:51:45.501Z,52.28
2023-04-28T06:54:27.967Z,51.01
2023-04-28T06:57:03.146Z,50.57
2023-04-28T06:59:56.011Z,51.60
2023-04-28T07:02:28.783Z,49.89
2023-04-28T07:05:01.490Z,49.66
2023-04-28T07:07:33.907Z,49.48
2023-04-28T07:10:07.778Z,51.25
2023-04-28T07:12:53.429Z,50.54
2023-04-28T07:15:46.115Z,48.53
2023-04-28T07:18:38.824Z,49.16
2023-04-28T07:21:12.121Z,48.82
2023-04-28T07:24:04.512Z,49.06
2023-04-28T07:26:47.719Z,49.53
2023-04-28T07:29:40.908Z,47.01
2023-04-28T07:32:13.809Z,47.75
2023-04-28T07:35:07.269Z,48.32
2023-04-28T07:37:43.216Z,48.05
2023-04-28T07:40:16.148Z,48.00
2023-04-28T07:42:52.602Z,47.89
2023-04-28T07:45:30.048Z,47.27
2023-04-28T07:48:02.907Z,46.57
2023-04-28T07:50:35.818Z,46.53
2023-04-28T07:53:19.987Z,47.99
2023-04-28T07:55:55.744Z,46.27
2023-04-28T07:58:28.242Z,44.81
2023-04-28T08:01:03.475Z,44.48
2023-04-28T08:03:56.784Z,44.16
2023-04-28T08:06:29.943Z,42.25
2023-04-28T08:09:04.132Z,41.72
2023-04-28T08:11:57.162Z,42.10
2023-04-28T08:14:43.603Z,41.36
2023-04-28T08:17:32.612Z,41.34
2023-04-28T08:20:25.837Z,39.53
2023-04-28T08:22:58.501Z,39.47
2023-04-28T08:25:30.945Z,39.15
2023-04-28T08:28:03.874Z,38.35
2023-04-28T08:30:38.533Z,39.74
2023-04-28T08:33:11.166Z,38.42
2023-04-28T08:35:44.026Z,37.72
2023-04-28T08:38:36.710Z,36.60
2023-04-28T08:41:09.911Z,35.93
2023-04-28T08:43:45.912Z,35.34
2023-04-28T08:46:19.751Z,34.58
2023-04-28T08:48:53.300Z,35.14
2023-04-28T08:51:32.679Z,33.53
2023-04-28T08:56:45.295Z,32.87
2023-04-28T08:59:20.410Z,33.96
2023-04-28T09:01:53.287Z,34.84
2023-04-28T09:04:28.585Z,34.76
2023-04-28T09:07:04.396Z,35.44
2023-04-28T09:09:39.302Z,35.08
2023-04-28T09:12:24.545Z,35.39
2023-04-28T09:15:09.329Z,35.46
2023-04-28T09:17:53.404Z,34.47
2023-04-28T09:20:27.209Z,33.60
2023-04-28T09:23:14.920Z,31.69
2023-04-28T09:26:02.128Z,31.92
2023-04-28T09:29:13.005Z,32.09
2023-04-28T09:31:45.874Z,31.76
2023-04-28T09:34:18.636Z,31.85
2023-04-28T09:36:51.720Z,32.94
2023-04-28T09:39:33.128Z,32.76
2023-04-28T09:42:08.051Z,31.90
2023-04-28T09:45:03.224Z,32.96
2023-04-28T09:47:37.564Z,32.75
2023-04-28T09:50:19.188Z,31.21
2023-04-28T09:53:01.231Z,32.38
2023-04-28T09:55:37.449Z,32.58
2023-04-28T09:58:33.275Z,31.59
2023-04-28T10:01:26.036Z,32.82
2023-04-28T10:04:12.059Z,32.68
2023-04-28T10:06:48.091Z,33.19
2023-04-28T10:09:31.947Z,32.36
2023-04-28T10:12:10.464Z,31.28
2023-04-28T10:15:04.336Z,32.55
2023-04-28T10:17:40.782Z,33.19
2023-04-28T10:20:19.474Z,32.35
2023-04-28T10:23:18.594Z,30.82
2023-04-28T10:25:57.297Z,31.92
2023-04-28T10:28:30.390Z,31.48
2023-04-28T10:31:16.839Z,31.99
2023-04-28T10:33:50.224Z,32.74
2023-04-28T10:36:51.129Z,30.48
2023-04-28T10:39:24.429Z,31.04
2023-04-28T10:41:57.067Z,31.66
2023-04-28T10:44:49.015Z,31.79
2023-04-28T10:47:21.318Z,31.47
2023-04-28T10:50:14.236Z,32.10
2023-04-28T10:52:54.005Z,31.78
2023-04-28T10:55:37.618Z,30.19
2023-04-28T10:58:42.682Z,30.43
2023-04-28T11:01:34.634Z,31.58
2023-04-28T11:04:14.178Z,32.36
2023-04-28T11:06:49.775Z,31.99
2023-04-28T11:09:50.541Z,31.98
2023-04-28T11:12:27.916Z,31.34
2023-04-28T11:15:12.935Z,29.50
2023-04-28T11:18:12.997Z,29.55
2023-04-28T11:20:51.305Z,30.40
2023-04-28T11:23:30.011Z,30.79
2023-04-28T11:26:02.855Z,31.14
2023-04-28T11:28:37.913Z,31.20
2023-04-28T11:31:19.685Z,31.47
2023-04-28T11:33:58.125Z,32.93
2023-04-28T11:36:37.137Z,33.23
2023-04-28T11:39:16.323Z,32.98
2023-04-28T11:41:49.448Z,32.24
2023-04-28T11:44:24.252Z,32.38
2023-04-28T11:47:03.144Z,32.35
2023-04-28T11:49:47.909Z,31.99
2023-04-28T11:52:21.372Z,32.22
2023-04-28T11:55:00.257Z,32.31
2023-04-28T11:57:42.075Z,31.71
2023-04-28T12:00:28.994Z,31.50
2023-04-28T12:03:23.062Z,31.98
2023-04-28T12:06:00.650Z,32.72
2023-04-28T12:08:36.560Z,33.18
2023-04-28T12:11:13.109Z,32.09
2023-04-28T12:13:46.807Z,31.68
2023-04-28T12:16:45.228Z,31.81
2023-04-28T12:19:21.455Z,30.67
2023-04-28T12:22:05.475Z,31.37
2023-04-28T12:24:39.172Z,30.83
2023-04-28T12:27:26.746Z,31.00
2023-04-28T12:30:32.387Z,31.47
2023-04-28T12:33:27.230Z,30.37
2023-04-28T12:36:03.000Z,30.55
2023-04-28T12:38:52.432Z,30.68
2023-04-28T12:41:34.204Z,31.58
2023-04-28T12:44:17.486Z,30.93
2023-04-28T12:47:12.353Z,31.07
2023-04-28T12:50:05.371Z,31.41
2023-04-28T12:52:38.144Z,31.29
2023-04-28T12:55:15.323Z,30.94
2023-04-28T12:57:48.453Z,30.50
2023-04-28T13:00:23.725Z,30.69
2023-04-28T13:02:59.990Z,31.35
2023-04-28T13:05:32.788Z,30.92
2023-04-28T13:08:26.206Z,31.37
2023-04-28T13:11:22.879Z,31.71
2023-04-28T13:14:00.653Z,32.32
2023-04-28T13:16:34.054Z,30.97
2023-04-28T13:19:27.955Z,31.28
2023-04-28T13:22:00.646Z,31.92
2023-04-28T13:24:37.035Z,31.27
2023-04-28T13:27:30.959Z,31.25
2023-04-28T13:30:04.187Z,31.59
2023-04-28T13:32:46.461Z,31.61
2023-04-28T13:35:30.878Z,31.92
2023-04-28T13:38:09.841Z,30.19
2023-04-28T13:41:02.559Z,30.68
2023-04-28T13:43:48.163Z,31.56
2023-04-28T13:46:21.234Z,30.72
2023-04-28T13:49:14.133Z,30.92
2023-04-28T13:51:56.435Z,30.68
2023-04-28T13:54:49.835Z,29.68
2023-04-28T13:57:42.595Z,31.13
2023-04-28T14:00:22.321Z,31.33
2023-04-28T14:03:07.959Z,31.51
2023-04-28T14:05:54.596Z,29.33
2023-04-28T14:08:37.180Z,29.56
2023-04-28T14:11:13.536Z,30.41
2023-04-28T14:14:06.985Z,31.09
2023-04-28T14:16:43.686Z,30.74
2023-04-28T14:19:27.232Z,30.82
2023-04-28T14:22:02.743Z,30.03
2023-04-28T14:24:55.586Z,29.94
2023-04-28T14:27:33.124Z,30.62
2023-04-28T14:30:22.099Z,29.66
2023-04-28T14:33:15.062Z,29.57
2023-04-28T14:36:08.795Z,29.38
2023-04-28T14:38:41.654Z,29.99
2023-04-28T14:41:26.759Z,30.55
2023-04-28T14:44:19.413Z,30.60
2023-04-28T14:47:05.411Z,30.86
2023-04-28T14:49:48.577Z,29.69
2023-04-28T14:52:42.933Z,30.10
2023-04-28T14:55:24.604Z,30.39
2023-04-28T14:58:08.949Z,29.99
2023-04-28T15:00:54.190Z,29.48
2023-04-28T15:03:40.786Z,29.52
2023-04-28T15:06:34.337Z,29.33
2023-04-28T15:09:26.984Z,28.80
2023-04-28T15:12:21.097Z,29.31
2023-04-28T15:15:10.379Z,29.58
2023-04-28T15:18:00.995Z,30.30
2023-04-28T15:20:54.445Z,31.48
2023-04-28T15:23:41.409Z,31.61
2023-04-28T15:26:34.604Z,31.48
2023-04-28T15:29:07.577Z,31.37
2023-04-28T15:31:53.953Z,31.62
2023-04-28T15:34:37.885Z,31.37
2023-04-28T15:37:43.084Z,32.02
2023-04-28T15:40:19.749Z,32.18
2023-04-28T15:42:55.593Z,32.25
2023-04-28T15:45:28.551Z,32.48
2023-04-28T15:48:05.023Z,32.51
2023-04-28T15:50:39.005Z,32.31
2023-04-28T15:53:11.819Z,32.82
2023-04-28T15:56:06.680Z,32.97
2023-04-28T15:58:42.551Z,33.07
2023-04-28T16:01:15.042Z,33.12
2023-04-28T16:03:58.629Z,33.15
2023-04-28T16:06:34.147Z,33.33
2023-04-28T16:09:07.916Z,32.94
2023-04-28T16:11:41.492Z,32.96
2023-04-28T16:14:16.779Z,33.32
2023-04-28T16:16:50.572Z,33.21
2023-04-28T16:19:26.049Z,32.69
2023-04-28T16:21:58.990Z,32.37
2023-04-28T16:24:32.492Z,32.09
2023-04-28T16:27:06.106Z,32.25
2023-04-28T16:29:40.427Z,31.72
2023-04-28T16:32:13.151Z,31.73
2023-04-28T16:34:45.756Z,31.95
2023-04-28T16:37:18.884Z,31.60
2023-04-28T16:39:54.435Z,31.59
2023-04-28T16:42:28.718Z,31.10
2023-04-28T16:45:01.225Z,31.25
2023-04-28T16:47:34.374Z,31.43
2023-04-28T16:50:09.340Z,31.87
2023-04-28T16:52:42.096Z,32.60
2023-04-28T16:55:18.890Z,33.02
2023-04-28T16:57:51.292Z,33.47
2023-04-28T17:00:24.945Z,34.03
2023-04-28T17:02:57.492Z,34.68
2023-04-28T17:05:30.328Z,35.10
2023-04-28T17:08:03.500Z,35.24
2023-04-28T17:10:38.034Z,35.72
2023-04-28T17:13:10.390Z,36.32
2023-04-28T17:15:42.940Z,36.74
2023-04-28T17:18:15.781Z,37.08
2023-04-28T17:20:49.536Z,37.54
2023-04-28T17:23:22.003Z,38.11
2023-04-28T17:25:54.733Z,38.56
2023-04-28T17:28:28.141Z,38.92
2023-04-28T17:31:03.772Z,39.54
2023-04-28T17:33:37.567Z,40.21
2023-04-28T17:36:10.400Z,40.84
2023-04-28T17:38:43.162Z,41.70
2023-04-28T17:41:16.782Z,42.26
2023-04-28T17:43:52.169Z,42.65
2023-04-28T17:46:24.828Z,42.99
2023-04-28T17:48:57.602Z,43.62
2023-04-28T17:51:30.642Z,44.26
2023-04-28T17:54:02.941Z,44.79
2023-04-28T17:56:38.358Z,45.48
2023-04-28T17:59:11.043Z,46.12
2023-04-28T18:01:47.128Z,46.87
2023-04-28T18:04:19.678Z,47.31
2023-04-28T18:07:04.817Z,47.07
2023-04-28T18:09:39.747Z,47.29
2023-04-28T18:12:21.646Z,47.30
2023-04-28T18:14:54.247Z,48.17
2023-04-28T18:17:28.194Z,48.55
2023-04-28T18:20:13.761Z,48.50
2023-04-28T18:22:47.507Z,48.57
2023-04-28T18:25:33.032Z,46.67
2023-04-28T18:28:11.104Z,48.73
2023-04-28T18:30:52.832Z,49.23
2023-04-28T18:33:46.243Z,49.36
2023-04-28T18:36:30.493Z,49.79
2023-04-28T18:39:03.941Z,50.75
2023-04-28T18:41:41.235Z,50.58
2023-04-28T18:44:34.439Z,50.63
2023-04-28T18:47:20.472Z,51.16
2023-04-28T18:49:53.664Z,51.80
2023-04-28T18:52:28.788Z,52.48
2023-04-28T18:55:01.094Z,52.72
2023-04-28T18:57:36.870Z,52.70
2023-04-28T19:00:22.916Z,52.82
2023-04-28T19:02:58.967Z,53.60
2023-04-28T19:05:51.788Z,53.96
2023-04-28T19:08:44.905Z,54.03
2023-04-28T19:11:32.092Z,54.19
2023-04-28T19:14:19.990Z,54.16
2023-04-28T19:17:12.969Z,54.01
2023-04-28T19:20:10.148Z,54.08
2023-04-28T19:22:47.180Z,54.39
2023-04-28T19:25:33.883Z,54.09
2023-04-28T19:28:09.313Z,54.42
2023-04-28T19:31:02.200Z,54.18
2023-04-28T19:33:57.296Z,54.73
2023-04-28T19:36:33.039Z,55.35
2023-04-28T19:39:28.104Z,55.02
2023-04-28T19:42:13.714Z,55.69
2023-04-28T19:44:54.870Z,56.02
2023-04-28T19:47:47.574Z,56.00
2023-04-28T19:50:40.198Z,56.36
2023-04-28T19:53:32.309Z,56.72
2023-04-28T19:56:10.405Z,56.87
2023-04-28T19:58:43.169Z,57.05
2023-04-28T20:01:18.076Z,57.67
2023-04-28T20:04:11.933Z,57.72
2023-04-28T20:07:04.821Z,58.00
2023-04-28T20:09:47.810Z,58.42
2023-04-28T20:12:41.259Z,58.69
2023-04-28T20:15:28.606Z,58.99
2023-04-28T20:18:04.442Z,59.62
2023-04-28T20:20:57.533Z,59.92
2023-04-28T20:23:51.138Z,60.08
2023-04-28T20:26:23.763Z,60.77
2023-04-28T20:29:18.162Z,61.01
2023-04-28T20:32:10.995Z,65.74
2023-04-28T20:35:05.799Z,68.46
2023-04-28T20:37:49.205Z,65.48
2023-04-28T20:40:42.189Z,62.00
2023-04-28T20:43:35.589Z,55.86
2023-04-28T20:46:28.659Z,52.52
2023-04-28T20:49:17.234Z,52.51
2023-04-28T20:52:10.146Z,52.91
2023-04-28T20:55:04.539Z,53.67
2023-04-28T20:57:44.753Z,54.54
2023-04-28T21:00:28.077Z,55.61
2023-04-28T21:03:23.736Z,56.46
2023-04-28T21:06:17.022Z,57.07
2023-04-28T21:09:01.723Z,57.97
2023-04-28T21:11:55.402Z,58.66
2023-04-28T21:14:37.971Z,59.51
2023-04-28T21:17:19.811Z,60.29
2023-04-28T21:20:16.036Z,64.79
2023-04-28T21:22:53.173Z,68.44
2023-04-28T21:25:45.836Z,66.68
2023-04-28T21:28:29.794Z,63.69
2023-04-28T21:31:02.791Z,61.09
2023-04-28T21:33:36.176Z,56.34
2023-04-28T21:36:29.165Z,53.21
2023-04-28T21:39:15.391Z,53.22
2023-04-28T21:41:48.236Z,54.32
2023-04-28T21:44:20.951Z,55.18
2023-04-28T21:46:56.639Z,56.22
2023-04-28T21:49:50.423Z,56.85
2023-04-28T21:52:43.386Z,57.86
2023-04-28T21:55:34.851Z,58.77
2023-04-28T21:58:17.659Z,60.19
2023-04-28T22:01:17.921Z,65.57
2023-04-28T22:04:11.352Z,68.75
2023-04-28T22:06:55.453Z,65.86
2023-04-28T22:09:33.918Z,62.75
2023-04-28T22:12:25.519Z,57.52
2023-04-28T22:15:18.448Z,54.19
2023-04-28T22:18:04.190Z,54.26
2023-04-28T22:20:57.534Z,54.94
2023-04-28T22:23:50.952Z,55.89
2023-04-28T22:26:45.882Z,56.97
2023-04-28T22:29:23.379Z,58.33
2023-04-28T22:32:16.429Z,59.01
2023-04-28T22:35:02.026Z,60.01
2023-04-28T22:37:54.718Z,64.90
2023-04-28T22:40:35.195Z,68.31
2023-04-28T22:43:28.912Z,66.20
2023-04-28T22:46:23.067Z,63.21
2023-04-28T22:49:15.801Z,58.17
2023-04-28T22:51:51.447Z,55.12
2023-04-28T22:54:53.550Z,54.81
2023-04-28T22:57:46.249Z,55.85
2023-04-28T23:00:39.394Z,56.88
2023-04-28T23:03:32.403Z,57.77
2023-04-28T23:06:28.856Z,59.01
2023-04-28T23:09:07.296Z,60.29
2023-04-28T23:11:54.950Z,65.38
2023-04-28T23:14:36.568Z,68.85
2023-04-28T23:17:29.237Z,67.09
2023-04-28T23:20:22.269Z,64.38
2023-04-28T23:23:15.117Z,61.82
2023-04-28T23:25:51.219Z,57.28
2023-04-28T23:28:37.941Z,54.27
2023-04-28T23:31:19.891Z,54.55
2023-04-28T23:34:00.803Z,55.60
2023-04-28T23:36:46.595Z,56.64
2023-04-28T23:39:30.391Z,57.88
2023-04-28T23:42:23.337Z,58.75
2023-04-28T23:45:11.053Z,60.09
2023-04-28T23:47:50.590Z,64.99
2023-04-28T23:50:43.272Z,68.24
2023-04-28T23:53:25.952Z,65.77
2023-04-28T23:56:18.686Z,63.00
2023-04-28T23:59:13.277Z,60.98
